Flight Track Log - Related Links

Times and Time Zones

All times are in EDT time to prevent confusion due to time zone crossing. See the GGN7281 flight status page for this flight to view local times or setup timezone preferences in your user account.

Time Position Orientation Groundspeed Altitude Reporting Facility
EDT Latitude Longitude Course Direction KTS MPH feet Rate Location/Type
Sat 11:08:19 42.7611 -73.8061 359° North 128 147 1,200  Level Boston Center
Sat 11:09:08 42.7922 -73.8067 359° North 145 167 2,900 1,940 Climbing Boston Center
Sat 11:10:32 42.8417 -73.8700 317° Northwest 170 196 5,500 1,917 Climbing Boston Center
Sat 11:11:32 42.8744 -73.9161 314° West 170 196 7,500 2,000 Climbing Boston Center
Sat 11:12:32 42.8775 -73.9900 273° West 176 203 9,500 1,800 Climbing Boston Center
Sat 11:13:32 42.8828 -74.0664 275° West 202 232 11,100 1,650 Climbing Boston Center
Sat 11:14:32 42.8858 -74.1458 273° West 214 246 12,800 1,500 Climbing Boston Center
Sat 11:15:32 42.8864 -74.2311 271° West 214 246 14,100 1,500 Climbing Boston Center
Sat 11:16:32 42.8914 -74.3133 275° West 219 252 15,800 1,600 Climbing Boston Center
Sat 11:17:32 42.8961 -74.4014 274° West 229 264 17,300 1,400 Climbing Boston Center
Sat 11:18:32 42.8947 -74.4892 269° West 236 272 18,600 1,150 Climbing Boston Center
Sat 11:19:32 42.8972 -74.5772 272° West 236 272 19,600 700 Climbing Boston Center
Sat 11:20:32 42.8994 -74.6792 272° West 254 292 20,000 150 Climbing Boston Center
Sat 11:21:32 42.9014 -74.7869 271° West 269 310 19,900  Descending Boston Center
Sat 11:22:32 42.9031 -74.9006 271° West 290 334 20,000 50 Climbing Boston Center
Sat 11:23:32 42.9050 -75.0111 271° West 295 339 20,000  Level Boston Center
Sat 11:24:32 42.9064 -75.1247 271° West 295 339 20,000  Level Boston Center
Sat 11:25:32 42.9100 -75.2381 273° West 295 339 20,000  Level Boston Center
Sat 11:26:32 42.9133 -75.3489 272° West 295 339 20,000  Level Boston Center
Sat 11:27:32 42.9169 -75.4597 273° West 300 345 20,000  Level Boston Center
Sat 11:28:32 42.9158 -75.5703 269° West 295 339 20,000  Level Boston Center
Sat 11:29:32 42.9169 -75.6808 271° West 295 339 20,000  Level Boston Center
Sat 11:30:32 42.9200 -75.7944 272° West 295 339 20,000  Level Boston Center
Sat 11:31:32 42.9228 -75.9053 272° West 295 339 20,000  Level Boston Center
Sat 11:32:32 42.9236 -76.0189 271° West 295 339 20,000  Level Boston Center
Sat 11:33:32 42.9264 -76.1267 272° West 295 339 20,000  Level Boston Center
Sat 11:35:48 42.9258 -76.3808 270° West 294 338 20,000  Level Cleveland Center
Sat 11:36:48 42.9297 -76.4939 273° West 294 338 20,000  Level Cleveland Center
Sat 11:37:48 42.9294 -76.6044 270° West 294 338 20,000  Level Cleveland Center
Sat 11:38:48 42.9317 -76.7264 271° West 294 338 20,000  Level Cleveland Center
Sat 11:39:48 42.9331 -76.8397 271° West 289 333 20,000  Level Cleveland Center
Sat 11:40:48 42.9325 -76.9503 270° West 289 333 20,000  Level Cleveland Center
Sat 11:41:48 42.9503 -77.0544 283° West 289 333 20,000  Level Cleveland Center
Sat 11:42:48 42.9703 -77.1611 284° West 294 338 20,000  Level Cleveland Center
Sat 11:43:48 42.9858 -77.2708 281° West 294 338 20,000  Level Cleveland Center
Sat 11:44:48 43.0036 -77.3778 283° West 294 338 20,000  Level Cleveland Center
Sat 11:45:48 43.0211 -77.4850 283° West 294 338 20,000 -250 Level Cleveland Center
Sat 11:46:48 43.0406 -77.5919 284° West 294 338 19,500 -900 Descending Cleveland Center
Sat 11:47:48 43.0622 -77.7017 285° West 294 338 18,200 -1,200 Descending Cleveland Center
Sat 11:48:48 43.0753 -77.8092 279° West 294 338 17,100 -1,000 Descending Cleveland Center
Sat 11:49:48 43.0839 -77.9197 276° West 294 338 16,200 -550 Descending Cleveland Center
Sat 11:50:48 43.1011 -78.0297 282° West 294 338 16,000 -100 Descending Cleveland Center
Sat 11:51:48 43.1219 -78.1342 285° West 294 338 16,000 -700 Level Cleveland Center
Sat 11:52:48 43.1389 -78.2472 282° West 294 338 14,600 -1,000 Descending Cleveland Center
Sat 11:53:48 43.1578 -78.3578 283° West 294 338 14,000 -350 Descending Cleveland Center
Sat 11:54:48 43.1722 -78.4625 281° West 294 338 13,900  Descending Cleveland Center
Sat 11:55:48 43.1889 -78.5672 282° West 294 338 14,000 -250 Climbing Cleveland Center
Sat 11:56:48 43.2050 -78.6722 282° West 289 333 13,400 -850 Descending Cleveland Center
Sat 11:57:48 43.2214 -78.7800 282° West 289 333 12,300 -796 Descending Cleveland Center
Sat 11:59:49 43.2500 -78.9667 282° West 280 322 11,000 -464 Descending Toronto Center
Sat 12:00:49 43.2500 -79.0667 270° West 270 311 10,900 -250 Descending Toronto Center
Sat 12:01:49 43.2667 -79.1833 281° West 270 311 10,500 -700 Descending Toronto Center
Sat 12:02:49 43.2833 -79.2667 285° West 280 322 9,500 -850 Descending Toronto Center
Sat 12:03:49 43.3333 -79.3500 310° West 280 322 8,800 -750 Descending Toronto Center
Sat 12:04:49 43.4000 -79.4000 331° Northwest 290 334 8,000 -400 Descending Toronto Center
Sat 12:05:49 43.4667 -79.4667 324° Northwest 280 322 8,000 -50 Level Toronto Center
Sat 12:06:49 43.5000 -79.5667 295° West 270 311 7,900 -50 Descending Toronto Center
Sat 12:07:49 43.5667 -79.6167 331° Northwest 270 311 7,900 -200 Level Toronto Center
Sat 12:08:49 43.6000 -79.5667 47° Northeast 250 288 7,500 -1,050 Descending Toronto Center
Sat 12:09:49 43.6500 -79.5000 44° Northeast 230 265 5,800 -1,750 Descending Toronto Center
Sat 12:10:49 43.6667 -79.4333 71° East 220 253 4,000 -1,350 Descending Toronto Center
Sat 12:11:49 43.7333 -79.4000 20° North 220 253 3,100 -550 Descending Toronto Center
Sat 12:12:49 43.7500 -79.4500 295° West 180 207 2,900 -550 Descending Toronto Center
Sat 12:13:49 43.7167 -79.5167 235° Southwest 180 207 2,000 -900 Descending Toronto Center
Sat 12:14:49 43.6833 -79.5333 200° South 170 196 1,100 -750 Descending Toronto Center
Sat 12:15:49 43.6667 -79.5833 245° Southwest 130 150 500 -600 Descending Toronto Center

Login

Don't have an account? Register now (free) for customized features, flight alerts, and more!